Time;durP1;ratioP1;P1;durP2;ratioP2;P2;SDS_P1;SDS_P2;PMS_P1;PMS_P2;Temp;Humidity;BMP_temperature;BMP_pressure;BME280_temperature;BME280_humidity;BME280_pressure;Samples;Min_cycle;Max_cycle;Signal;HPM_P1;HPM_P2
2022/05/23 00:02:09;;;;;;;1.27;1.27;;;;;;;;;;5104865;28;20346;-58
2022/05/23 00:04:57;;;;;;;1.60;1.50;;;;;;;;;;5109911;28;20797;-57
2022/05/23 00:07:46;;;;;;;1.50;1.40;;;;;;;;;;5106308;28;20308;-57
2022/05/23 00:10:34;;;;;;;1.73;1.63;;;;;;;;;;5106860;28;20224;-57
2022/05/23 00:13:20;;;;;;;1.23;1.23;;;;;;;;;;5103573;28;20231;-57
2022/05/23 00:16:08;;;;;;;1.17;1.10;;;;;;;;;;5115204;27;20231;-58
2022/05/23 00:18:55;;;;;;;1.20;1.20;;;;;;;;;;5114230;27;20336;-57
2022/05/23 00:21:45;;;;;;;1.70;1.60;;;;;;;;;;5119773;27;20242;-58
2022/05/23 00:24:32;;;;;;;1.90;1.60;;;;;;;;;;5118878;27;20193;-57
2022/05/23 00:27:22;;;;;;;1.57;1.50;;;;;;;;;;5117151;27;20208;-57
2022/05/23 00:30:13;;;;;;;1.00;1.00;;;;;;;;;;5124721;27;20239;-57
2022/05/23 00:36:05;;;;;;;1.60;1.50;;;;;;;;;;5102933;28;20231;-57
2022/05/23 00:38:54;;;;;;;1.70;1.60;;;;;;;;;;5108898;27;20255;-57
2022/05/23 00:44:47;;;;;;;1.80;1.70;;;;;;;;;;5112407;27;20220;-57
2022/05/23 00:47:34;;;;;;;1.70;1.60;;;;;;;;;;5111009;27;20344;-59
2022/05/23 00:50:21;;;;;;;1.97;1.87;;;;;;;;;;5113772;27;20690;-57
2022/05/23 00:53:09;;;;;;;2.03;1.87;;;;;;;;;;5116829;27;20708;-58
2022/05/23 00:55:58;;;;;;;2.00;1.70;;;;;;;;;;5113749;27;20225;-57
2022/05/23 00:58:50;;;;;;;1.60;1.50;;;;;;;;;;5121350;27;20283;-57
2022/05/23 01:01:39;;;;;;;1.87;1.77;;;;;;;;;;5119859;27;20229;-57
2022/05/23 01:04:25;;;;;;;2.30;1.87;;;;;;;;;;5122160;27;20295;-56
2022/05/23 01:07:13;;;;;;;2.30;2.10;;;;;;;;;;5101569;27;20211;-58
2022/05/23 01:10:00;;;;;;;2.23;1.90;;;;;;;;;;5109993;27;20233;-57
2022/05/23 01:12:48;;;;;;;1.90;1.80;;;;;;;;;;5110744;27;20319;-57
2022/05/23 01:15:36;;;;;;;1.93;1.83;;;;;;;;;;5108259;27;20293;-57
2022/05/23 01:18:23;;;;;;;3.00;1.90;;;;;;;;;;5109519;27;20200;-58
2022/05/23 01:21:18;;;;;;;2.43;1.70;;;;;;;;;;5110911;27;20222;-57
2022/05/23 01:24:12;;;;;;;2.30;2.10;;;;;;;;;;5112181;27;20690;-57
2022/05/23 01:27:01;;;;;;;2.10;2.00;;;;;;;;;;5113209;27;20272;-57
2022/05/23 01:29:48;;;;;;;2.50;1.90;;;;;;;;;;5118151;27;20300;-57
2022/05/23 01:32:35;;;;;;;2.10;2.00;;;;;;;;;;5112629;27;20240;-57
2022/05/23 01:35:22;;;;;;;2.00;1.90;;;;;;;;;;5119976;27;20355;-57
2022/05/23 01:38:10;;;;;;;2.13;1.97;;;;;;;;;;5117526;27;20499;-57
2022/05/23 01:40:58;;;;;;;2.50;2.30;;;;;;;;;;5101207;27;20198;-58
2022/05/23 01:43:46;;;;;;;2.33;2.13;;;;;;;;;;5100327;27;20214;-57
2022/05/23 01:46:33;;;;;;;2.27;2.00;;;;;;;;;;5114445;27;20237;-57
2022/05/23 01:49:20;;;;;;;2.00;1.90;;;;;;;;;;5106595;27;20674;-57
2022/05/23 01:52:08;;;;;;;2.33;2.13;;;;;;;;;;5110271;27;20284;-58
2022/05/23 01:54:55;;;;;;;2.50;2.30;;;;;;;;;;5111813;27;20204;-57
2022/05/23 01:57:42;;;;;;;2.30;2.20;;;;;;;;;;5109849;27;20673;-57
2022/05/23 02:03:35;;;;;;;2.10;2.00;;;;;;;;;;5120591;27;20689;-58
2022/05/23 02:06:22;;;;;;;2.30;2.20;;;;;;;;;;5113589;27;20289;-57
2022/05/23 02:09:08;;;;;;;2.53;2.33;;;;;;;;;;5115744;27;20235;-57
2022/05/23 02:11:56;;;;;;;2.40;2.20;;;;;;;;;;5121126;27;20221;-57
2022/05/23 02:14:43;;;;;;;2.57;2.37;;;;;;;;;;5108515;27;20266;-58
2022/05/23 02:17:32;;;;;;;2.63;2.43;;;;;;;;;;5101701;27;20605;-58
2022/05/23 02:20:18;;;;;;;2.20;2.10;;;;;;;;;;5111453;27;20295;-58
2022/05/23 02:23:06;;;;;;;2.50;2.30;;;;;;;;;;5110417;27;20292;-57
2022/05/23 02:25:53;;;;;;;2.07;1.97;;;;;;;;;;5116769;27;20749;-57
2022/05/23 02:28:40;;;;;;;1.90;1.80;;;;;;;;;;5106684;27;20246;-57
2022/05/23 02:31:28;;;;;;;2.00;1.90;;;;;;;;;;5102092;27;20370;-58
2022/05/23 02:34:16;;;;;;;2.03;1.93;;;;;;;;;;5110295;27;20205;-58
2022/05/23 02:37:04;;;;;;;2.10;2.00;;;;;;;;;;5111757;27;20294;-57
2022/05/23 02:39:51;;;;;;;1.90;1.80;;;;;;;;;;5116482;27;20287;-57
2022/05/23 02:42:38;;;;;;;1.90;1.80;;;;;;;;;;5115031;27;20689;-58
2022/05/23 02:45:25;;;;;;;2.20;2.10;;;;;;;;;;5113332;27;20335;-58
2022/05/23 02:48:12;;;;;;;2.13;2.00;;;;;;;;;;5111602;27;20213;-57
2022/05/23 02:51:00;;;;;;;1.87;1.77;;;;;;;;;;5101856;27;20732;-57
2022/05/23 02:53:47;;;;;;;2.03;1.93;;;;;;;;;;5105405;27;20704;-58
2022/05/23 02:56:49;;;;;;;1.80;1.70;;;;;;;;;;5104651;27;20310;-57
2022/05/23 02:59:36;;;;;;;1.90;1.80;;;;;;;;;;5102222;27;20213;-57
2022/05/23 03:05:27;;;;;;;1.67;1.63;;;;;;;;;;5114640;27;20736;-58
2022/05/23 03:08:17;;;;;;;1.40;1.40;;;;;;;;;;5108495;27;20242;-58
2022/05/23 03:11:08;;;;;;;1.90;1.80;;;;;;;;;;5108781;27;20222;-57
2022/05/23 03:13:54;;;;;;;1.63;1.60;;;;;;;;;;5116444;27;20839;-57
2022/05/23 03:16:41;;;;;;;1.70;1.70;;;;;;;;;;5113885;27;20206;-57
2022/05/23 03:19:28;;;;;;;1.30;1.30;;;;;;;;;;5115865;27;20687;-57
2022/05/23 03:28:26;;;;;;;1.43;1.43;;;;;;;;;;5106219;27;20210;-58
2022/05/23 03:31:13;;;;;;;1.80;1.70;;;;;;;;;;5108170;27;20262;-57
2022/05/23 03:34:00;;;;;;;1.27;1.27;;;;;;;;;;5107125;27;20301;-58
2022/05/23 03:36:47;;;;;;;1.53;1.53;;;;;;;;;;5109676;27;20326;-58
2022/05/23 03:39:34;;;;;;;1.30;1.30;;;;;;;;;;5106773;27;20794;-57
2022/05/23 03:42:22;;;;;;;1.53;1.53;;;;;;;;;;5111627;27;20287;-57
2022/05/23 03:45:10;;;;;;;1.23;1.23;;;;;;;;;;5108317;28;20217;-57
2022/05/23 03:47:58;;;;;;;1.40;1.40;;;;;;;;;;5112575;28;20702;-57
2022/05/23 03:50:45;;;;;;;1.40;1.40;;;;;;;;;;5118596;27;20305;-57
2022/05/23 03:53:32;;;;;;;1.33;1.23;;;;;;;;;;5117029;27;20219;-57
2022/05/23 03:56:19;;;;;;;1.63;1.53;;;;;;;;;;5107574;28;20263;-57
2022/05/23 03:59:07;;;;;;;1.43;1.43;;;;;;;;;;5100843;28;20233;-57
2022/05/23 04:01:56;;;;;;;1.50;1.50;;;;;;;;;;5106296;28;20233;-57
2022/05/23 04:04:42;;;;;;;1.40;1.40;;;;;;;;;;5102214;28;20203;-58
2022/05/23 04:07:30;;;;;;;1.33;1.33;;;;;;;;;;5102322;28;20247;-57
2022/05/23 04:10:18;;;;;;;1.20;1.20;;;;;;;;;;5104270;28;20697;-58
2022/05/23 04:13:06;;;;;;;1.33;1.33;;;;;;;;;;5112301;28;20283;-57
2022/05/23 04:15:54;;;;;;;1.43;1.43;;;;;;;;;;5115684;28;20733;-57
2022/05/23 04:18:41;;;;;;;1.43;1.30;;;;;;;;;;5109318;28;20609;-57
2022/05/23 04:21:28;;;;;;;1.40;1.40;;;;;;;;;;5115393;28;20645;-57
2022/05/23 04:24:17;;;;;;;1.40;1.40;;;;;;;;;;5114441;28;20290;-57
2022/05/23 04:27:04;;;;;;;1.40;1.40;;;;;;;;;;5120892;28;20209;-57
2022/05/23 04:29:51;;;;;;;1.20;1.20;;;;;;;;;;5115687;28;20210;-57
2022/05/23 04:35:44;;;;;;;1.40;1.40;;;;;;;;;;5101656;28;20701;-57
2022/05/23 04:38:31;;;;;;;1.40;1.40;;;;;;;;;;5098244;28;20223;-57
2022/05/23 04:41:18;;;;;;;1.30;1.30;;;;;;;;;;5105673;28;20334;-57
2022/05/23 04:44:06;;;;;;;1.30;1.30;;;;;;;;;;5104855;28;20287;-57
2022/05/23 04:50:00;;;;;;;1.30;1.30;;;;;;;;;;5108316;28;20209;-57
2022/05/23 04:52:47;;;;;;;1.43;1.43;;;;;;;;;;5116336;28;20254;-57
2022/05/23 04:55:36;;;;;;;1.30;1.30;;;;;;;;;;5114866;28;20591;-57
2022/05/23 04:58:23;;;;;;;1.43;1.43;;;;;;;;;;5108696;28;20282;-58
2022/05/23 05:01:10;;;;;;;0.97;0.97;;;;;;;;;;5116164;27;20194;-57
2022/05/23 05:03:57;;;;;;;1.30;1.30;;;;;;;;;;5123234;27;20853;-57
2022/05/23 05:06:46;;;;;;;1.40;1.30;;;;;;;;;;5104452;27;20198;-57
2022/05/23 05:09:33;;;;;;;1.47;1.47;;;;;;;;;;5110374;27;20285;-58
2022/05/23 05:12:20;;;;;;;1.57;1.23;;;;;;;;;;5103636;27;20304;-57
2022/05/23 05:15:08;;;;;;;1.13;1.13;;;;;;;;;;5106723;27;20289;-57
2022/05/23 05:17:55;;;;;;;1.23;1.23;;;;;;;;;;5109104;27;20200;-57
2022/05/23 05:20:42;;;;;;;1.10;1.10;;;;;;;;;;5111734;27;20214;-57
2022/05/23 05:23:30;;;;;;;1.00;1.00;;;;;;;;;;5113728;27;20241;-58
2022/05/23 05:26:17;;;;;;;1.10;1.10;;;;;;;;;;5116153;27;20205;-58
2022/05/23 05:29:05;;;;;;;1.13;1.13;;;;;;;;;;5115687;27;20298;-57
2022/05/23 05:31:55;;;;;;;1.20;1.20;;;;;;;;;;5113196;27;20711;-57
2022/05/23 05:34:47;;;;;;;1.33;1.33;;;;;;;;;;5119089;27;20919;-57
2022/05/23 05:37:43;;;;;;;1.20;1.20;;;;;;;;;;5115729;27;20244;-57
2022/05/23 05:40:35;;;;;;;0.90;0.90;;;;;;;;;;5002543;27;20758;-59
2022/05/23 05:43:24;;;;;;;1.37;1.37;;;;;;;;;;4915590;28;21296;-59
2022/05/23 05:46:15;;;;;;;1.00;1.00;;;;;;;;;;5081507;28;20245;-57
2022/05/23 05:49:05;;;;;;;1.20;1.20;;;;;;;;;;5086491;28;20216;-57
2022/05/23 05:51:55;;;;;;;1.10;1.10;;;;;;;;;;5090040;28;20269;-57
2022/05/23 05:54:42;;;;;;;1.30;1.30;;;;;;;;;;5097424;28;20299;-58
2022/05/23 05:57:31;;;;;;;0.90;0.90;;;;;;;;;;5092427;28;20267;-58
2022/05/23 06:00:19;;;;;;;1.13;1.13;;;;;;;;;;5097281;28;20210;-58
2022/05/23 06:03:06;;;;;;;1.20;1.20;;;;;;;;;;5089139;28;20210;-58
2022/05/23 06:12:02;;;;;;;0.90;0.90;;;;;;;;;;5098579;28;20264;-58
2022/05/23 06:14:51;;;;;;;1.10;1.10;;;;;;;;;;5090853;28;20211;-57
2022/05/23 06:17:42;;;;;;;1.10;1.10;;;;;;;;;;5087158;28;20211;-57
2022/05/23 06:20:29;;;;;;;1.10;1.10;;;;;;;;;;5084225;28;20206;-69
2022/05/23 06:23:16;;;;;;;1.00;1.00;;;;;;;;;;5097794;28;20201;-57
2022/05/23 06:26:03;;;;;;;1.00;1.00;;;;;;;;;;5084985;28;20681;-57
2022/05/23 06:28:51;;;;;;;1.07;1.07;;;;;;;;;;5093258;28;20203;-59
2022/05/23 06:31:40;;;;;;;1.10;1.10;;;;;;;;;;5093287;28;20790;-58
2022/05/23 06:34:27;;;;;;;1.17;1.17;;;;;;;;;;5091729;28;20635;-57
2022/05/23 06:37:14;;;;;;;0.80;0.80;;;;;;;;;;5099076;28;20338;-58
2022/05/23 06:40:01;;;;;;;1.00;1.00;;;;;;;;;;5093053;28;20395;-57
2022/05/23 06:42:48;;;;;;;1.30;1.30;;;;;;;;;;5099338;28;20211;-58
2022/05/23 06:45:35;;;;;;;0.93;0.93;;;;;;;;;;5099378;28;20749;-57
2022/05/23 06:48:24;;;;;;;1.08;1.08;;;;;;;;;;5092720;28;20264;-57
2022/05/23 06:51:11;;;;;;;1.25;1.25;;;;;;;;;;5087453;28;20217;-57
2022/05/23 06:53:58;;;;;;;1.08;1.00;;;;;;;;;;5081940;28;20315;-57
2022/05/23 06:56:45;;;;;;;1.00;1.00;;;;;;;;;;5091323;28;20260;-58
2022/05/23 06:59:32;;;;;;;1.00;1.00;;;;;;;;;;5084868;28;20308;-57
2022/05/23 07:02:19;;;;;;;0.80;0.80;;;;;;;;;;5090851;28;20627;-57
2022/05/23 07:14:22;;;;;;;1.13;1.13;;;;;;;;;;5101728;28;20289;-56
2022/05/23 07:17:09;;;;;;;1.02;1.02;;;;;;;;;;5094981;28;20194;-56
2022/05/23 07:19:56;;;;;;;0.68;0.68;;;;;;;;;;5096603;28;20247;-56
2022/05/23 07:22:45;;;;;;;0.80;0.80;;;;;;;;;;5086789;28;20207;-55
2022/05/23 07:25:32;;;;;;;1.05;0.90;;;;;;;;;;5081096;28;20217;-54
2022/05/23 07:28:19;;;;;;;0.80;0.80;;;;;;;;;;5080456;28;20242;-54
2022/05/23 07:31:06;;;;;;;0.90;0.90;;;;;;;;;;5084411;28;20301;-56
2022/05/23 07:33:53;;;;;;;0.60;0.60;;;;;;;;;;5086547;28;20214;-56
2022/05/23 07:36:40;;;;;;;0.70;0.70;;;;;;;;;;5086581;28;20307;-56
2022/05/23 07:39:28;;;;;;;0.90;0.90;;;;;;;;;;5088795;28;20208;-54
2022/05/23 07:42:15;;;;;;;0.80;0.70;;;;;;;;;;5092002;28;20210;-54
2022/05/23 07:45:02;;;;;;;0.65;0.65;;;;;;;;;;5092950;28;20237;-55
2022/05/23 07:47:49;;;;;;;0.80;0.80;;;;;;;;;;5093497;28;20306;-54
2022/05/23 07:50:38;;;;;;;0.73;0.73;;;;;;;;;;5092156;28;20205;-55
2022/05/23 08:02:40;;;;;;;0.80;0.80;;;;;;;;;;5081225;28;20199;-56
2022/05/23 08:05:27;;;;;;;0.80;0.80;;;;;;;;;;5082711;28;20214;-56
2022/05/23 08:08:14;;;;;;;0.60;0.60;;;;;;;;;;5083009;28;20289;-57
2022/05/23 08:11:01;;;;;;;0.70;0.70;;;;;;;;;;5087495;28;20342;-55
2022/05/23 08:13:53;;;;;;;0.80;0.80;;;;;;;;;;5088491;28;20205;-57
2022/05/23 08:16:40;;;;;;;0.80;0.80;;;;;;;;;;5087810;28;20336;-57
2022/05/23 08:19:27;;;;;;;0.60;0.60;;;;;;;;;;5092521;28;20255;-55
2022/05/23 08:22:14;;;;;;;0.85;0.50;;;;;;;;;;5093086;28;20682;-56
2022/05/23 08:25:01;;;;;;;0.60;0.60;;;;;;;;;;5092766;28;20579;-54
2022/05/23 08:27:48;;;;;;;0.50;0.50;;;;;;;;;;5089092;28;20251;-55
2022/05/23 08:30:36;;;;;;;0.63;0.63;;;;;;;;;;5092422;28;20207;-55
2022/05/23 08:33:23;;;;;;;0.75;0.60;;;;;;;;;;5081791;28;20690;-54
2022/05/23 08:36:11;;;;;;;0.75;0.75;;;;;;;;;;5080389;28;20290;-55
2022/05/23 08:38:58;;;;;;;0.60;0.60;;;;;;;;;;5088358;28;20202;-55
2022/05/23 08:41:46;;;;;;;0.85;0.80;;;;;;;;;;5086826;28;20252;-55
2022/05/23 08:44:43;;;;;;;0.68;0.68;;;;;;;;;;5091148;28;20289;-54
2022/05/23 08:47:35;;;;;;;0.60;0.60;;;;;;;;;;5093670;28;20241;-55
2022/05/23 08:50:29;;;;;;;0.50;0.50;;;;;;;;;;5094536;28;20300;-56
2022/05/23 08:53:21;;;;;;;0.68;0.68;;;;;;;;;;5090337;28;20352;-56
2022/05/23 08:56:27;;;;;;;0.90;0.60;;;;;;;;;;5094610;28;20293;-56
2022/05/23 08:59:21;;;;;;;0.77;0.52;;;;;;;;;;5094551;28;20230;-58
2022/05/23 09:02:12;;;;;;;0.82;0.82;;;;;;;;;;5097407;28;20252;-56
2022/05/23 09:05:04;;;;;;;0.70;0.70;;;;;;;;;;5090989;28;20689;-56
2022/05/23 09:07:55;;;;;;;0.68;0.68;;;;;;;;;;5086570;28;20233;-56
2022/05/23 09:10:47;;;;;;;0.60;0.60;;;;;;;;;;5082066;28;20286;-56
2022/05/23 09:13:39;;;;;;;0.90;0.80;;;;;;;;;;5083121;28;20230;-56
2022/05/23 09:16:28;;;;;;;0.70;0.70;;;;;;;;;;5089285;28;20359;-56
2022/05/23 09:19:19;;;;;;;0.50;0.50;;;;;;;;;;5093024;28;20266;-57
2022/05/23 09:22:13;;;;;;;0.63;0.50;;;;;;;;;;5094734;28;20735;-56
2022/05/23 09:25:02;;;;;;;0.70;0.70;;;;;;;;;;5094475;28;20294;-56
2022/05/23 09:27:54;;;;;;;0.60;0.60;;;;;;;;;;5090316;28;20205;-56
2022/05/23 09:30:42;;;;;;;0.70;0.70;;;;;;;;;;5095639;28;20229;-57
2022/05/23 09:33:31;;;;;;;0.88;0.60;;;;;;;;;;5098374;28;20361;-57
2022/05/23 09:36:20;;;;;;;0.70;0.70;;;;;;;;;;5101920;28;20308;-56
2022/05/23 09:39:11;;;;;;;0.77;0.40;;;;;;;;;;5102992;28;20222;-56
2022/05/23 09:48:25;;;;;;;1.05;0.93;;;;;;;;;;5096185;28;20221;-57
2022/05/23 09:51:12;;;;;;;0.70;0.70;;;;;;;;;;5086978;28;20723;-57
2022/05/23 09:54:04;;;;;;;0.70;0.70;;;;;;;;;;5091512;28;20299;-57
2022/05/23 09:56:53;;;;;;;0.60;0.60;;;;;;;;;;5088216;28;20248;-56
2022/05/23 09:59:40;;;;;;;0.73;0.73;;;;;;;;;;5097395;28;20205;-57
2022/05/23 10:02:36;;;;;;;0.80;0.68;;;;;;;;;;5089734;28;20199;-56
2022/05/23 10:05:26;;;;;;;0.63;0.63;;;;;;;;;;5096678;28;20210;-57
2022/05/23 10:08:15;;;;;;;0.60;0.60;;;;;;;;;;5097190;28;20202;-56
2022/05/23 10:11:05;;;;;;;0.57;0.57;;;;;;;;;;5098806;28;20235;-57
2022/05/23 10:13:55;;;;;;;0.50;0.47;;;;;;;;;;5097384;28;20226;-57
2022/05/23 10:16:47;;;;;;;0.43;0.43;;;;;;;;;;5087205;28;20230;-58
2022/05/23 10:19:36;;;;;;;0.50;0.50;;;;;;;;;;5080614;28;20247;-56
2022/05/23 10:22:25;;;;;;;0.40;0.40;;;;;;;;;;5093479;28;20331;-56
2022/05/23 10:25:13;;;;;;;0.50;0.50;;;;;;;;;;5092460;28;20284;-56
2022/05/23 10:28:05;;;;;;;0.63;0.60;;;;;;;;;;5088293;28;20815;-56
2022/05/23 10:31:00;;;;;;;0.40;0.40;;;;;;;;;;5088294;28;20244;-57
2022/05/23 10:33:51;;;;;;;0.73;0.70;;;;;;;;;;5089298;28;20249;-57
2022/05/23 10:36:41;;;;;;;0.63;0.55;;;;;;;;;;5092140;28;20244;-57
2022/05/23 10:42:42;;;;;;;1.00;0.85;;;;;;;;;;5094528;28;20614;-56
2022/05/23 10:45:33;;;;;;;0.85;0.68;;;;;;;;;;5097258;28;20206;-56
2022/05/23 10:48:42;;;;;;;0.93;0.60;;;;;;;;;;5089983;28;20219;-56
2022/05/23 10:51:35;;;;;;;0.50;0.47;;;;;;;;;;5088428;28;20203;-57
2022/05/23 10:54:38;;;;;;;0.50;0.50;;;;;;;;;;5089689;28;20222;-57
2022/05/23 10:57:42;;;;;;;0.50;0.40;;;;;;;;;;5084602;28;20717;-56
2022/05/23 11:00:35;;;;;;;0.45;0.45;;;;;;;;;;5094837;28;20303;-56
2022/05/23 11:03:29;;;;;;;0.50;0.50;;;;;;;;;;5088339;28;20249;-56
2022/05/23 11:06:24;;;;;;;0.40;0.40;;;;;;;;;;5093329;28;20235;-58
2022/05/23 11:09:25;;;;;;;0.40;0.40;;;;;;;;;;5094402;28;20221;-56
2022/05/23 11:12:25;;;;;;;0.60;0.60;;;;;;;;;;5095613;28;20306;-57
2022/05/23 11:15:26;;;;;;;0.55;0.55;;;;;;;;;;5094688;28;21025;-57
2022/05/23 11:18:22;;;;;;;0.70;0.47;;;;;;;;;;5096546;28;20211;-57
2022/05/23 11:21:12;;;;;;;0.60;0.60;;;;;;;;;;5099470;28;20229;-56
2022/05/23 11:24:06;;;;;;;1.77;0.50;;;;;;;;;;5085447;28;20230;-56
2022/05/23 11:33:41;;;;;;;0.38;0.38;;;;;;;;;;5082328;28;20222;-57
2022/05/23 11:36:24;;;;;;;0.50;0.50;;;;;;;;;;5086504;28;20709;-56
2022/05/23 11:39:48;;;;;;;0.95;0.50;;;;;;;;;;5089172;28;20312;-56
2022/05/23 11:42:43;;;;;;;0.63;0.60;;;;;;;;;;5087549;28;20290;-56
2022/05/23 11:48:55;;;;;;;0.65;0.65;;;;;;;;;;5093774;28;20218;-56
2022/05/23 11:51:42;;;;;;;0.50;0.50;;;;;;;;;;5094428;28;20596;-58
2022/05/23 11:54:40;;;;;;;0.50;0.50;;;;;;;;;;5096466;28;20244;-57
2022/05/23 11:57:36;;;;;;;0.40;0.40;;;;;;;;;;5078234;28;20731;-57
2022/05/23 12:00:34;;;;;;;0.73;0.73;;;;;;;;;;5090785;28;20653;-57
2022/05/23 12:03:21;;;;;;;0.60;0.60;;;;;;;;;;5083850;28;20290;-57
2022/05/23 12:06:16;;;;;;;0.65;0.65;;;;;;;;;;5084476;28;20210;-57
2022/05/23 12:09:06;;;;;;;0.50;0.50;;;;;;;;;;5083276;28;20811;-56
2022/05/23 12:12:37;;;;;;;0.40;0.40;;;;;;;;;;5094962;28;20315;-57
2022/05/23 12:15:48;;;;;;;0.50;0.50;;;;;;;;;;5090617;28;20294;-57
2022/05/23 12:18:40;;;;;;;0.60;0.60;;;;;;;;;;5095688;28;20244;-57
2022/05/23 12:21:48;;;;;;;0.53;0.53;;;;;;;;;;5088467;28;20292;-57
2022/05/23 12:24:36;;;;;;;0.75;0.70;;;;;;;;;;5101322;28;20240;-56
2022/05/23 12:27:29;;;;;;;0.60;0.60;;;;;;;;;;5101824;28;20222;-57
2022/05/23 12:30:37;;;;;;;0.40;0.37;;;;;;;;;;5103224;28;20218;-57
2022/05/23 12:33:25;;;;;;;0.50;0.50;;;;;;;;;;5082655;28;20606;-56
2022/05/23 12:36:14;;;;;;;0.82;0.73;;;;;;;;;;5090991;28;20204;-57
2022/05/23 12:39:18;;;;;;;0.55;0.55;;;;;;;;;;5085632;28;20559;-56
2022/05/23 12:42:14;;;;;;;0.95;0.70;;;;;;;;;;5088212;28;20283;-57
2022/05/23 12:45:18;;;;;;;0.70;0.50;;;;;;;;;;5091425;28;20213;-56
2022/05/23 12:48:18;;;;;;;0.50;0.50;;;;;;;;;;5093010;28;20735;-56
2022/05/23 12:51:21;;;;;;;0.40;0.40;;;;;;;;;;5097325;28;20201;-57
2022/05/23 12:54:23;;;;;;;0.43;0.43;;;;;;;;;;5089726;28;20278;-56
2022/05/23 12:57:43;;;;;;;0.60;0.60;;;;;;;;;;5097424;28;20352;-57
2022/05/23 13:00:34;;;;;;;1.30;0.50;;;;;;;;;;5096451;28;20246;-57
2022/05/23 13:03:29;;;;;;;0.70;0.70;;;;;;;;;;5097270;28;20317;-57
2022/05/23 13:06:23;;;;;;;1.10;0.70;;;;;;;;;;5089772;28;20252;-56
2022/05/23 13:09:14;;;;;;;0.50;0.50;;;;;;;;;;5083053;28;20226;-57
2022/05/23 13:12:06;;;;;;;1.13;0.83;;;;;;;;;;5087910;28;20217;-56
2022/05/23 13:14:55;;;;;;;0.60;0.60;;;;;;;;;;5086037;28;20314;-57
2022/05/23 13:17:44;;;;;;;0.67;0.67;;;;;;;;;;5095499;28;20220;-57
2022/05/23 13:23:53;;;;;;;0.83;0.83;;;;;;;;;;5020406;28;20205;-56
2022/05/23 13:26:40;;;;;;;0.60;0.60;;;;;;;;;;5023491;28;20736;-56
2022/05/23 13:29:27;;;;;;;0.63;0.63;;;;;;;;;;5084863;28;20247;-56
2022/05/23 13:32:16;;;;;;;1.07;0.80;;;;;;;;;;5095834;28;20698;-57
2022/05/23 13:35:18;;;;;;;0.70;0.70;;;;;;;;;;5098629;28;21094;-57
2022/05/23 13:38:22;;;;;;;0.70;0.70;;;;;;;;;;5100818;28;20697;-57
2022/05/23 13:41:27;;;;;;;1.03;0.60;;;;;;;;;;5091102;28;20208;-57
2022/05/23 13:44:21;;;;;;;0.83;0.80;;;;;;;;;;5091491;28;20682;-56
2022/05/23 13:47:12;;;;;;;0.70;0.70;;;;;;;;;;5096310;28;20236;-57
2022/05/23 13:50:03;;;;;;;0.77;0.77;;;;;;;;;;5087322;28;20206;-56
2022/05/23 13:52:56;;;;;;;1.23;0.80;;;;;;;;;;5093753;28;20371;-57
2022/05/23 13:55:47;;;;;;;0.60;0.60;;;;;;;;;;5092251;28;20979;-56
2022/05/23 13:58:43;;;;;;;0.60;0.60;;;;;;;;;;5093477;28;20288;-56
2022/05/23 14:01:35;;;;;;;0.40;0.40;;;;;;;;;;5100880;28;20244;-56
2022/05/23 14:04:26;;;;;;;0.80;0.70;;;;;;;;;;5095048;28;20203;-57
2022/05/23 14:07:15;;;;;;;0.63;0.50;;;;;;;;;;5097923;28;20637;-57
2022/05/23 14:10:03;;;;;;;1.20;0.80;;;;;;;;;;5097056;28;20568;-60
2022/05/23 14:12:50;;;;;;;0.80;0.80;;;;;;;;;;5099001;28;20570;-56
2022/05/23 14:15:44;;;;;;;1.73;0.80;;;;;;;;;;5085528;28;20688;-57
2022/05/23 14:18:33;;;;;;;0.63;0.63;;;;;;;;;;5085522;28;20210;-56
2022/05/23 14:21:34;;;;;;;0.70;0.70;;;;;;;;;;5084698;28;20667;-57
2022/05/23 14:24:28;;;;;;;0.50;0.50;;;;;;;;;;5086736;28;20208;-56
2022/05/23 14:27:26;;;;;;;0.63;0.63;;;;;;;;;;5088539;28;20202;-56
2022/05/23 14:30:19;;;;;;;0.70;0.70;;;;;;;;;;5087895;28;20289;-56
2022/05/23 14:33:19;;;;;;;0.60;0.60;;;;;;;;;;5092434;28;20214;-57
2022/05/23 14:36:19;;;;;;;0.90;0.90;;;;;;;;;;5089348;28;20230;-57
2022/05/23 14:39:17;;;;;;;0.87;0.70;;;;;;;;;;5091149;28;20212;-57
2022/05/23 14:42:27;;;;;;;0.90;0.90;;;;;;;;;;5095203;28;20209;-56
2022/05/23 14:45:23;;;;;;;0.53;0.53;;;;;;;;;;5094716;28;20203;-56
2022/05/23 14:48:17;;;;;;;1.07;0.70;;;;;;;;;;5089612;28;20696;-56
2022/05/23 14:51:13;;;;;;;0.70;0.70;;;;;;;;;;5088038;28;20201;-57
2022/05/23 15:00:38;;;;;;;0.83;0.80;;;;;;;;;;5086293;28;20235;-56
2022/05/23 15:03:29;;;;;;;0.57;0.57;;;;;;;;;;5086641;28;20240;-56
2022/05/23 15:06:16;;;;;;;1.13;0.70;;;;;;;;;;5094396;28;20263;-56
2022/05/23 15:09:03;;;;;;;0.60;0.47;;;;;;;;;;5088037;28;20288;-56
2022/05/23 15:11:50;;;;;;;0.50;0.50;;;;;;;;;;5094597;28;20683;-56
2022/05/23 15:14:38;;;;;;;0.77;0.70;;;;;;;;;;5091017;28;20313;-56
2022/05/23 15:17:27;;;;;;;0.50;0.47;;;;;;;;;;5094526;28;20204;-57
2022/05/23 15:20:15;;;;;;;0.60;0.60;;;;;;;;;;5101845;28;20199;-56
2022/05/23 15:23:02;;;;;;;0.60;0.60;;;;;;;;;;5085964;28;20291;-57
2022/05/23 15:25:50;;;;;;;0.60;0.60;;;;;;;;;;5092424;28;20278;-56
2022/05/23 15:28:38;;;;;;;0.57;0.57;;;;;;;;;;5090354;28;20236;-56
2022/05/23 15:31:27;;;;;;;0.70;0.70;;;;;;;;;;5089818;28;20204;-56
2022/05/23 15:34:14;;;;;;;0.57;0.57;;;;;;;;;;5085232;28;20221;-56
2022/05/23 15:37:02;;;;;;;1.17;0.70;;;;;;;;;;5088140;28;20284;-56
2022/05/23 15:39:49;;;;;;;0.70;0.70;;;;;;;;;;5091413;28;20261;-57
2022/05/23 15:42:39;;;;;;;1.33;0.60;;;;;;;;;;5087786;28;20208;-57
2022/05/23 15:45:28;;;;;;;0.70;0.70;;;;;;;;;;5095768;28;20199;-56
2022/05/23 15:48:18;;;;;;;0.70;0.63;;;;;;;;;;5097082;28;20229;-57
2022/05/23 15:51:05;;;;;;;0.60;0.60;;;;;;;;;;5093805;28;20234;-57
2022/05/23 15:53:53;;;;;;;0.80;0.80;;;;;;;;;;5092637;28;20224;-56
2022/05/23 15:56:41;;;;;;;0.73;0.73;;;;;;;;;;5085803;28;20254;-56
2022/05/23 15:59:29;;;;;;;1.03;0.80;;;;;;;;;;5084344;28;20206;-56
2022/05/23 16:02:16;;;;;;;1.53;0.73;;;;;;;;;;5092259;28;20217;-56
2022/05/23 16:05:03;;;;;;;0.60;0.60;;;;;;;;;;5083922;28;20307;-57
2022/05/23 16:07:50;;;;;;;0.60;0.60;;;;;;;;;;5085698;28;20326;-56
2022/05/23 16:10:41;;;;;;;0.50;0.50;;;;;;;;;;5091282;28;20311;-57
2022/05/23 16:13:29;;;;;;;0.73;0.63;;;;;;;;;;5085434;28;20208;-57
2022/05/23 16:16:18;;;;;;;0.80;0.80;;;;;;;;;;5095608;28;20293;-56
2022/05/23 16:19:04;;;;;;;0.70;0.70;;;;;;;;;;5089979;28;20694;-57
2022/05/23 16:21:52;;;;;;;0.70;0.70;;;;;;;;;;5093330;28;20705;-57
2022/05/23 16:24:39;;;;;;;0.63;0.63;;;;;;;;;;5093219;28;20679;-57
2022/05/23 16:27:28;;;;;;;0.50;0.50;;;;;;;;;;5092295;28;20292;-57
2022/05/23 16:30:17;;;;;;;0.60;0.60;;;;;;;;;;5089755;28;20743;-61
2022/05/23 16:39:18;;;;;;;0.60;0.60;;;;;;;;;;5085852;28;20201;-57
2022/05/23 16:42:06;;;;;;;0.77;0.77;;;;;;;;;;5092568;28;20300;-57
2022/05/23 16:44:54;;;;;;;0.53;0.53;;;;;;;;;;5087298;28;20269;-57
2022/05/23 16:47:41;;;;;;;0.83;0.60;;;;;;;;;;5094943;28;20312;-57
2022/05/23 16:50:28;;;;;;;0.70;0.70;;;;;;;;;;5087515;28;20217;-57
2022/05/23 16:53:15;;;;;;;0.80;0.60;;;;;;;;;;5083739;28;20229;-57
2022/05/23 16:56:02;;;;;;;0.70;0.57;;;;;;;;;;5093394;28;20367;-57
2022/05/23 16:58:49;;;;;;;0.70;0.70;;;;;;;;;;5095593;28;20245;-57
2022/05/23 17:01:38;;;;;;;0.70;0.70;;;;;;;;;;5099447;28;20279;-62
2022/05/23 17:04:25;;;;;;;0.57;0.57;;;;;;;;;;5100342;28;20612;-57
2022/05/23 17:07:12;;;;;;;0.70;0.70;;;;;;;;;;5090663;28;20199;-56
2022/05/23 17:09:59;;;;;;;0.60;0.60;;;;;;;;;;5090220;28;20209;-57
2022/05/23 17:12:46;;;;;;;0.47;0.47;;;;;;;;;;5082559;28;20234;-56
2022/05/23 17:15:34;;;;;;;0.80;0.80;;;;;;;;;;5088887;28;20299;-56
2022/05/23 17:18:23;;;;;;;0.70;0.70;;;;;;;;;;5087837;28;20617;-57
2022/05/23 17:21:10;;;;;;;0.50;0.50;;;;;;;;;;5087007;28;20241;-57
2022/05/23 17:23:57;;;;;;;0.97;0.60;;;;;;;;;;5089799;28;20294;-57
2022/05/23 17:26:44;;;;;;;0.87;0.70;;;;;;;;;;5094907;28;20602;-56
2022/05/23 17:29:31;;;;;;;0.67;0.67;;;;;;;;;;5092900;28;20241;-58
2022/05/23 17:32:17;;;;;;;0.90;0.70;;;;;;;;;;5093536;28;20292;-56
2022/05/23 17:35:07;;;;;;;1.03;0.70;;;;;;;;;;5098925;28;20550;-56
2022/05/23 17:37:54;;;;;;;0.67;0.50;;;;;;;;;;5100218;28;20204;-57
2022/05/23 17:40:42;;;;;;;0.60;0.60;;;;;;;;;;5089400;28;20209;-57
2022/05/23 17:43:28;;;;;;;0.67;0.67;;;;;;;;;;5093813;28;20320;-57
2022/05/23 17:46:16;;;;;;;0.50;0.50;;;;;;;;;;5092945;28;20305;-56
2022/05/23 17:49:02;;;;;;;0.53;0.50;;;;;;;;;;5088361;28;20290;-57
2022/05/23 17:51:51;;;;;;;0.70;0.70;;;;;;;;;;5085996;28;20304;-57
2022/05/23 17:54:38;;;;;;;2.10;0.70;;;;;;;;;;5091287;28;20338;-56
2022/05/23 17:57:25;;;;;;;0.50;0.50;;;;;;;;;;5090016;28;20231;-57
2022/05/23 18:00:14;;;;;;;0.60;0.60;;;;;;;;;;5093266;28;20283;-56
2022/05/23 18:03:01;;;;;;;0.53;0.53;;;;;;;;;;5096154;28;20236;-56
2022/05/23 18:05:48;;;;;;;0.60;0.60;;;;;;;;;;5095331;28;20248;-57
2022/05/23 18:08:37;;;;;;;1.23;0.77;;;;;;;;;;5094442;28;20208;-57
2022/05/23 18:11:24;;;;;;;0.70;0.70;;;;;;;;;;5094930;28;20267;-56
2022/05/23 18:20:19;;;;;;;0.83;0.80;;;;;;;;;;5086414;28;20367;-56
2022/05/23 18:23:06;;;;;;;0.57;0.50;;;;;;;;;;5088081;28;20252;-56
2022/05/23 18:25:55;;;;;;;0.73;0.73;;;;;;;;;;5086000;28;20637;-57
2022/05/23 18:28:44;;;;;;;0.60;0.60;;;;;;;;;;5088871;28;20290;-57
2022/05/23 18:31:31;;;;;;;1.00;1.00;;;;;;;;;;5093117;28;20558;-57